sensor_id;sensor_type;location;lat;lon;timestamp;P1;durP1;ratioP1;P2;durP2;ratioP2
6013;SDS011;3035;49.928;8.410;2022-08-11T00:01:04;11.33;;;2.90;;
6013;SDS011;3035;49.928;8.410;2022-08-11T00:03:33;8.83;;;2.90;;
6013;SDS011;3035;49.928;8.410;2022-08-11T00:06:02;13.87;;;3.50;;
6013;SDS011;3035;49.928;8.410;2022-08-11T00:08:32;7.90;;;2.87;;
6013;SDS011;3035;49.928;8.410;2022-08-11T00:11:03;9.67;;;3.37;;
6013;SDS011;3035;49.928;8.410;2022-08-11T00:13:35;6.50;;;3.10;;
6013;SDS011;3035;49.928;8.410;2022-08-11T00:16:12;6.07;;;3.20;;
6013;SDS011;3035;49.928;8.410;2022-08-11T00:18:41;5.10;;;3.03;;
6013;SDS011;3035;49.928;8.410;2022-08-11T00:21:12;12.40;;;3.10;;
6013;SDS011;3035;49.928;8.410;2022-08-11T00:23:42;4.23;;;2.80;;
6013;SDS011;3035;49.928;8.410;2022-08-11T00:26:11;3.60;;;2.97;;
6013;SDS011;3035;49.928;8.410;2022-08-11T00:28:40;18.83;;;3.83;;
6013;SDS011;3035;49.928;8.410;2022-08-11T00:31:11;9.23;;;3.00;;
6013;SDS011;3035;49.928;8.410;2022-08-11T00:33:41;9.00;;;3.80;;
6013;SDS011;3035;49.928;8.410;2022-08-11T00:36:09;5.07;;;3.07;;
6013;SDS011;3035;49.928;8.410;2022-08-11T00:38:39;5.20;;;3.00;;
6013;SDS011;3035;49.928;8.410;2022-08-11T00:41:10;3.50;;;3.20;;
6013;SDS011;3035;49.928;8.410;2022-08-11T00:44:02;4.37;;;2.60;;
6013;SDS011;3035;49.928;8.410;2022-08-11T00:46:56;8.50;;;2.90;;
6013;SDS011;3035;49.928;8.410;2022-08-11T00:49:37;6.67;;;3.23;;
6013;SDS011;3035;49.928;8.410;2022-08-11T00:52:32;9.60;;;2.90;;
6013;SDS011;3035;49.928;8.410;2022-08-11T00:58:38;5.10;;;3.20;;
6013;SDS011;3035;49.928;8.410;2022-08-11T01:01:27;17.03;;;2.67;;
6013;SDS011;3035;49.928;8.410;2022-08-11T01:07:13;6.23;;;2.70;;
6013;SDS011;3035;49.928;8.410;2022-08-11T01:09:48;3.90;;;2.80;;
6013;SDS011;3035;49.928;8.410;2022-08-11T01:12:39;4.40;;;2.80;;
6013;SDS011;3035;49.928;8.410;2022-08-11T01:17:55;7.97;;;3.03;;
6013;SDS011;3035;49.928;8.410;2022-08-11T01:29:31;5.77;;;3.23;;
6013;SDS011;3035;49.928;8.410;2022-08-11T01:32:18;4.50;;;3.00;;
6013;SDS011;3035;49.928;8.410;2022-08-11T01:38:04;4.80;;;2.60;;
6013;SDS011;3035;49.928;8.410;2022-08-11T01:40:44;11.53;;;3.37;;
6013;SDS011;3035;49.928;8.410;2022-08-11T01:43:28;4.50;;;2.80;;
6013;SDS011;3035;49.928;8.410;2022-08-11T01:46:15;4.93;;;3.23;;
6013;SDS011;3035;49.928;8.410;2022-08-11T01:51:53;2.97;;;2.53;;
6013;SDS011;3035;49.928;8.410;2022-08-11T01:54:20;5.47;;;3.33;;
6013;SDS011;3035;49.928;8.410;2022-08-11T01:56:52;6.47;;;2.60;;
6013;SDS011;3035;49.928;8.410;2022-08-11T01:59:33;5.63;;;3.07;;
6013;SDS011;3035;49.928;8.410;2022-08-11T02:04:49;9.30;;;2.80;;
6013;SDS011;3035;49.928;8.410;2022-08-11T02:10:33;8.40;;;2.90;;
6013;SDS011;3035;49.928;8.410;2022-08-11T02:13:23;5.70;;;2.53;;
6013;SDS011;3035;49.928;8.410;2022-08-11T02:16:09;5.50;;;2.97;;
6013;SDS011;3035;49.928;8.410;2022-08-11T02:18:37;7.17;;;3.30;;
6013;SDS011;3035;49.928;8.410;2022-08-11T02:21:11;7.50;;;3.07;;
6013;SDS011;3035;49.928;8.410;2022-08-11T02:23:48;3.33;;;2.87;;
6013;SDS011;3035;49.928;8.410;2022-08-11T02:26:21;7.20;;;3.67;;
6013;SDS011;3035;49.928;8.410;2022-08-11T02:28:53;11.57;;;2.97;;
6013;SDS011;3035;49.928;8.410;2022-08-11T02:31:39;5.50;;;3.47;;
6013;SDS011;3035;49.928;8.410;2022-08-11T02:34:43;9.50;;;3.50;;
6013;SDS011;3035;49.928;8.410;2022-08-11T02:37:19;7.20;;;2.87;;
6013;SDS011;3035;49.928;8.410;2022-08-11T02:45:36;6.40;;;3.60;;
6013;SDS011;3035;49.928;8.410;2022-08-11T02:51:35;4.43;;;3.03;;
6013;SDS011;3035;49.928;8.410;2022-08-11T02:54:37;4.47;;;2.87;;
6013;SDS011;3035;49.928;8.410;2022-08-11T02:57:12;4.80;;;3.10;;
6013;SDS011;3035;49.928;8.410;2022-08-11T02:59:50;4.80;;;2.97;;
6013;SDS011;3035;49.928;8.410;2022-08-11T03:05:47;6.10;;;3.00;;
6013;SDS011;3035;49.928;8.410;2022-08-11T03:08:19;3.87;;;2.83;;
6013;SDS011;3035;49.928;8.410;2022-08-11T03:11:11;3.40;;;2.90;;
6013;SDS011;3035;49.928;8.410;2022-08-11T03:13:50;8.13;;;3.33;;
6013;SDS011;3035;49.928;8.410;2022-08-11T03:16:31;3.67;;;2.93;;
6013;SDS011;3035;49.928;8.410;2022-08-11T03:19:10;7.20;;;2.73;;
6013;SDS011;3035;49.928;8.410;2022-08-11T03:21:50;4.77;;;3.53;;
6013;SDS011;3035;49.928;8.410;2022-08-11T03:27:25;5.47;;;3.50;;
6013;SDS011;3035;49.928;8.410;2022-08-11T03:30:00;6.53;;;3.80;;
6013;SDS011;3035;49.928;8.410;2022-08-11T03:35:36;5.20;;;3.40;;
6013;SDS011;3035;49.928;8.410;2022-08-11T03:38:06;5.50;;;3.50;;
6013;SDS011;3035;49.928;8.410;2022-08-11T03:40:50;6.00;;;3.30;;
6013;SDS011;3035;49.928;8.410;2022-08-11T03:43:36;6.33;;;3.40;;
6013;SDS011;3035;49.928;8.410;2022-08-11T03:49:20;5.50;;;3.40;;
6013;SDS011;3035;49.928;8.410;2022-08-11T03:51:51;3.20;;;2.83;;
6013;SDS011;3035;49.928;8.410;2022-08-11T03:54:27;4.20;;;3.40;;
6013;SDS011;3035;49.928;8.410;2022-08-11T04:00:00;9.27;;;3.53;;
6013;SDS011;3035;49.928;8.410;2022-08-11T04:02:40;5.80;;;3.70;;
6013;SDS011;3035;49.928;8.410;2022-08-11T04:05:25;6.17;;;3.17;;
6013;SDS011;3035;49.928;8.410;2022-08-11T04:11:03;4.63;;;3.47;;
6013;SDS011;3035;49.928;8.410;2022-08-11T04:13:39;8.50;;;3.30;;
6013;SDS011;3035;49.928;8.410;2022-08-11T04:24:50;8.60;;;4.20;;
6013;SDS011;3035;49.928;8.410;2022-08-11T04:30:54;7.70;;;3.13;;
6013;SDS011;3035;49.928;8.410;2022-08-11T04:39:15;4.93;;;3.30;;
6013;SDS011;3035;49.928;8.410;2022-08-11T04:44:44;6.97;;;3.53;;
6013;SDS011;3035;49.928;8.410;2022-08-11T04:47:32;3.73;;;3.00;;
6013;SDS011;3035;49.928;8.410;2022-08-11T04:50:25;8.47;;;4.77;;
6013;SDS011;3035;49.928;8.410;2022-08-11T04:56:00;6.73;;;3.20;;
6013;SDS011;3035;49.928;8.410;2022-08-11T04:58:54;10.10;;;3.57;;
6013;SDS011;3035;49.928;8.410;2022-08-11T05:01:39;5.70;;;3.60;;
6013;SDS011;3035;49.928;8.410;2022-08-11T05:04:31;5.90;;;3.60;;
6013;SDS011;3035;49.928;8.410;2022-08-11T05:07:30;5.03;;;3.23;;
6013;SDS011;3035;49.928;8.410;2022-08-11T05:10:15;5.10;;;3.60;;
6013;SDS011;3035;49.928;8.410;2022-08-11T05:15:42;3.70;;;3.00;;
6013;SDS011;3035;49.928;8.410;2022-08-11T05:18:13;6.67;;;3.40;;
6013;SDS011;3035;49.928;8.410;2022-08-11T05:20:49;9.60;;;3.50;;
6013;SDS011;3035;49.928;8.410;2022-08-11T05:23:25;6.23;;;3.63;;
6013;SDS011;3035;49.928;8.410;2022-08-11T05:26:01;13.13;;;4.07;;
6013;SDS011;3035;49.928;8.410;2022-08-11T05:28:37;4.10;;;3.07;;
6013;SDS011;3035;49.928;8.410;2022-08-11T05:31:12;4.57;;;2.77;;
6013;SDS011;3035;49.928;8.410;2022-08-11T05:33:48;25.83;;;3.70;;
6013;SDS011;3035;49.928;8.410;2022-08-11T05:36:36;7.70;;;3.33;;
6013;SDS011;3035;49.928;8.410;2022-08-11T05:39:10;5.00;;;2.90;;
6013;SDS011;3035;49.928;8.410;2022-08-11T05:41:40;4.77;;;3.97;;
6013;SDS011;3035;49.928;8.410;2022-08-11T05:44:17;5.83;;;2.93;;
6013;SDS011;3035;49.928;8.410;2022-08-11T05:46:51;9.33;;;3.70;;
6013;SDS011;3035;49.928;8.410;2022-08-11T05:49:29;5.13;;;3.70;;
6013;SDS011;3035;49.928;8.410;2022-08-11T05:52:03;3.40;;;3.10;;
6013;SDS011;3035;49.928;8.410;2022-08-11T05:54:38;4.80;;;3.03;;
6013;SDS011;3035;49.928;8.410;2022-08-11T05:57:17;6.93;;;2.90;;
6013;SDS011;3035;49.928;8.410;2022-08-11T05:59:47;5.63;;;2.60;;
6013;SDS011;3035;49.928;8.410;2022-08-11T06:02:16;6.93;;;3.17;;
6013;SDS011;3035;49.928;8.410;2022-08-11T06:04:46;5.07;;;2.90;;
6013;SDS011;3035;49.928;8.410;2022-08-11T06:07:15;5.10;;;3.03;;
6013;SDS011;3035;49.928;8.410;2022-08-11T06:09:47;13.43;;;3.60;;
6013;SDS011;3035;49.928;8.410;2022-08-11T06:12:24;7.90;;;2.90;;
6013;SDS011;3035;49.928;8.410;2022-08-11T06:14:54;8.23;;;3.70;;
6013;SDS011;3035;49.928;8.410;2022-08-11T06:17:26;7.30;;;3.40;;
6013;SDS011;3035;49.928;8.410;2022-08-11T06:19:58;7.10;;;3.03;;
6013;SDS011;3035;49.928;8.410;2022-08-11T06:22:30;5.90;;;3.03;;
6013;SDS011;3035;49.928;8.410;2022-08-11T06:24:59;3.23;;;2.90;;
6013;SDS011;3035;49.928;8.410;2022-08-11T06:27:29;4.27;;;2.90;;
6013;SDS011;3035;49.928;8.410;2022-08-11T06:29:58;4.07;;;2.53;;
6013;SDS011;3035;49.928;8.410;2022-08-11T06:32:30;4.30;;;3.37;;
6013;SDS011;3035;49.928;8.410;2022-08-11T06:35:06;5.10;;;3.30;;
6013;SDS011;3035;49.928;8.410;2022-08-11T06:37:43;4.70;;;3.13;;
6013;SDS011;3035;49.928;8.410;2022-08-11T06:42:57;6.70;;;3.60;;
6013;SDS011;3035;49.928;8.410;2022-08-11T06:45:28;9.20;;;3.17;;
6013;SDS011;3035;49.928;8.410;2022-08-11T06:47:58;8.67;;;2.97;;
6013;SDS011;3035;49.928;8.410;2022-08-11T06:50:27;5.63;;;2.30;;
6013;SDS011;3035;49.928;8.410;2022-08-11T06:53:03;8.20;;;2.90;;
6013;SDS011;3035;49.928;8.410;2022-08-11T06:55:33;7.13;;;3.30;;
6013;SDS011;3035;49.928;8.410;2022-08-11T06:58:16;4.33;;;2.77;;
6013;SDS011;3035;49.928;8.410;2022-08-11T07:00:52;4.27;;;2.90;;
6013;SDS011;3035;49.928;8.410;2022-08-11T07:03:21;9.20;;;2.90;;
6013;SDS011;3035;49.928;8.410;2022-08-11T07:05:53;3.80;;;2.70;;
6013;SDS011;3035;49.928;8.410;2022-08-11T07:11:26;9.70;;;2.70;;
6013;SDS011;3035;49.928;8.410;2022-08-11T07:13:55;4.70;;;3.70;;
6013;SDS011;3035;49.928;8.410;2022-08-11T07:16:30;5.80;;;3.30;;
6013;SDS011;3035;49.928;8.410;2022-08-11T07:19:02;3.60;;;2.30;;
6013;SDS011;3035;49.928;8.410;2022-08-11T07:21:35;5.37;;;2.63;;
6013;SDS011;3035;49.928;8.410;2022-08-11T07:24:13;5.33;;;2.80;;
6013;SDS011;3035;49.928;8.410;2022-08-11T07:26:49;11.00;;;2.93;;
6013;SDS011;3035;49.928;8.410;2022-08-11T07:29:23;9.00;;;2.87;;
6013;SDS011;3035;49.928;8.410;2022-08-11T07:31:52;5.90;;;2.90;;
6013;SDS011;3035;49.928;8.410;2022-08-11T07:34:23;7.50;;;2.37;;
6013;SDS011;3035;49.928;8.410;2022-08-11T07:36:54;5.13;;;2.70;;
6013;SDS011;3035;49.928;8.410;2022-08-11T07:39:25;7.33;;;2.80;;
6013;SDS011;3035;49.928;8.410;2022-08-11T07:41:54;9.67;;;2.90;;
6013;SDS011;3035;49.928;8.410;2022-08-11T07:44:24;7.20;;;3.00;;
6013;SDS011;3035;49.928;8.410;2022-08-11T07:46:53;7.30;;;2.70;;
6013;SDS011;3035;49.928;8.410;2022-08-11T07:49:28;4.63;;;2.90;;
6013;SDS011;3035;49.928;8.410;2022-08-11T07:52:03;3.27;;;2.60;;
6013;SDS011;3035;49.928;8.410;2022-08-11T07:54:38;2.53;;;2.00;;
6013;SDS011;3035;49.928;8.410;2022-08-11T07:57:07;9.70;;;3.27;;
6013;SDS011;3035;49.928;8.410;2022-08-11T07:59:42;5.47;;;2.70;;
6013;SDS011;3035;49.928;8.410;2022-08-11T08:02:17;18.83;;;2.60;;
6013;SDS011;3035;49.928;8.410;2022-08-11T08:04:52;3.00;;;2.40;;
6013;SDS011;3035;49.928;8.410;2022-08-11T08:07:27;5.73;;;2.83;;
6013;SDS011;3035;49.928;8.410;2022-08-11T08:10:01;6.03;;;2.57;;
6013;SDS011;3035;49.928;8.410;2022-08-11T08:12:37;3.73;;;2.40;;
6013;SDS011;3035;49.928;8.410;2022-08-11T08:15:13;7.13;;;2.87;;
6013;SDS011;3035;49.928;8.410;2022-08-11T08:17:47;5.17;;;2.60;;
6013;SDS011;3035;49.928;8.410;2022-08-11T08:20:19;3.00;;;2.43;;
6013;SDS011;3035;49.928;8.410;2022-08-11T08:22:55;3.63;;;2.37;;
6013;SDS011;3035;49.928;8.410;2022-08-11T08:25:26;4.43;;;2.50;;
6013;SDS011;3035;49.928;8.410;2022-08-11T08:27:58;4.53;;;2.80;;
6013;SDS011;3035;49.928;8.410;2022-08-11T08:30:27;4.20;;;2.60;;
6013;SDS011;3035;49.928;8.410;2022-08-11T08:33:02;3.27;;;2.83;;
6013;SDS011;3035;49.928;8.410;2022-08-11T08:35:31;2.20;;;2.00;;
6013;SDS011;3035;49.928;8.410;2022-08-11T08:38:00;8.07;;;2.90;;
6013;SDS011;3035;49.928;8.410;2022-08-11T08:40:30;4.47;;;2.40;;
6013;SDS011;3035;49.928;8.410;2022-08-11T08:43:02;4.17;;;2.67;;
6013;SDS011;3035;49.928;8.410;2022-08-11T08:45:31;4.80;;;2.60;;
6013;SDS011;3035;49.928;8.410;2022-08-11T08:48:00;7.70;;;3.00;;
6013;SDS011;3035;49.928;8.410;2022-08-11T08:50:32;3.77;;;2.80;;
6013;SDS011;3035;49.928;8.410;2022-08-11T08:53:07;3.77;;;2.83;;
6013;SDS011;3035;49.928;8.410;2022-08-11T08:55:36;4.30;;;2.53;;
6013;SDS011;3035;49.928;8.410;2022-08-11T08:58:06;4.40;;;2.80;;
6013;SDS011;3035;49.928;8.410;2022-08-11T09:00:39;3.43;;;2.50;;
6013;SDS011;3035;49.928;8.410;2022-08-11T09:03:08;3.80;;;2.80;;
6013;SDS011;3035;49.928;8.410;2022-08-11T09:05:38;4.30;;;2.97;;
6013;SDS011;3035;49.928;8.410;2022-08-11T09:08:07;4.70;;;2.50;;
6013;SDS011;3035;49.928;8.410;2022-08-11T09:10:37;3.70;;;2.80;;
6013;SDS011;3035;49.928;8.410;2022-08-11T09:13:06;5.83;;;2.53;;
6013;SDS011;3035;49.928;8.410;2022-08-11T09:15:36;4.10;;;2.67;;
6013;SDS011;3035;49.928;8.410;2022-08-11T09:18:05;7.50;;;2.50;;
6013;SDS011;3035;49.928;8.410;2022-08-11T09:20:36;2.57;;;2.20;;
6013;SDS011;3035;49.928;8.410;2022-08-11T09:23:05;6.37;;;2.20;;
6013;SDS011;3035;49.928;8.410;2022-08-11T09:25:39;4.83;;;2.40;;
6013;SDS011;3035;49.928;8.410;2022-08-11T09:28:15;3.10;;;2.07;;
6013;SDS011;3035;49.928;8.410;2022-08-11T09:30:44;2.90;;;2.50;;
6013;SDS011;3035;49.928;8.410;2022-08-11T09:33:15;5.23;;;2.30;;
6013;SDS011;3035;49.928;8.410;2022-08-11T09:35:43;2.27;;;2.07;;
6013;SDS011;3035;49.928;8.410;2022-08-11T09:38:13;6.33;;;2.17;;
6013;SDS011;3035;49.928;8.410;2022-08-11T09:40:48;6.10;;;1.93;;
6013;SDS011;3035;49.928;8.410;2022-08-11T09:43:18;5.47;;;2.20;;
6013;SDS011;3035;49.928;8.410;2022-08-11T09:45:52;4.13;;;2.63;;
6013;SDS011;3035;49.928;8.410;2022-08-11T09:48:23;9.70;;;2.57;;
6013;SDS011;3035;49.928;8.410;2022-08-11T09:50:54;8.43;;;2.50;;
6013;SDS011;3035;49.928;8.410;2022-08-11T09:53:24;4.70;;;2.50;;
6013;SDS011;3035;49.928;8.410;2022-08-11T09:55:52;3.33;;;2.30;;
6013;SDS011;3035;49.928;8.410;2022-08-11T09:58:22;8.80;;;2.30;;
6013;SDS011;3035;49.928;8.410;2022-08-11T10:00:51;3.50;;;2.23;;
6013;SDS011;3035;49.928;8.410;2022-08-11T10:03:21;3.00;;;2.20;;
6013;SDS011;3035;49.928;8.410;2022-08-11T10:05:53;2.80;;;2.00;;
6013;SDS011;3035;49.928;8.410;2022-08-11T10:08:30;4.13;;;1.90;;
6013;SDS011;3035;49.928;8.410;2022-08-11T10:10:59;2.20;;;1.90;;
6013;SDS011;3035;49.928;8.410;2022-08-11T10:13:30;4.80;;;1.90;;
6013;SDS011;3035;49.928;8.410;2022-08-11T10:15:59;1.97;;;1.70;;
6013;SDS011;3035;49.928;8.410;2022-08-11T10:18:29;2.57;;;2.30;;
6013;SDS011;3035;49.928;8.410;2022-08-11T10:21:09;3.53;;;2.00;;
6013;SDS011;3035;49.928;8.410;2022-08-11T10:23:42;14.83;;;2.77;;
6013;SDS011;3035;49.928;8.410;2022-08-11T10:26:17;3.87;;;2.50;;
6013;SDS011;3035;49.928;8.410;2022-08-11T10:28:52;7.40;;;1.97;;
6013;SDS011;3035;49.928;8.410;2022-08-11T10:31:22;8.93;;;2.47;;
6013;SDS011;3035;49.928;8.410;2022-08-11T10:33:57;7.33;;;2.47;;
6013;SDS011;3035;49.928;8.410;2022-08-11T10:36:35;8.33;;;2.30;;
6013;SDS011;3035;49.928;8.410;2022-08-11T10:39:09;3.30;;;1.90;;
6013;SDS011;3035;49.928;8.410;2022-08-11T10:41:39;2.53;;;2.10;;
6013;SDS011;3035;49.928;8.410;2022-08-11T10:44:14;7.87;;;2.70;;
6013;SDS011;3035;49.928;8.410;2022-08-11T10:46:44;6.17;;;2.43;;
6013;SDS011;3035;49.928;8.410;2022-08-11T10:49:19;4.43;;;2.60;;
6013;SDS011;3035;49.928;8.410;2022-08-11T10:51:48;7.70;;;2.70;;
6013;SDS011;3035;49.928;8.410;2022-08-11T10:54:23;2.07;;;1.87;;
6013;SDS011;3035;49.928;8.410;2022-08-11T10:56:58;8.00;;;2.20;;
6013;SDS011;3035;49.928;8.410;2022-08-11T10:59:33;5.87;;;1.87;;
6013;SDS011;3035;49.928;8.410;2022-08-11T11:02:03;3.63;;;2.13;;
6013;SDS011;3035;49.928;8.410;2022-08-11T11:04:38;5.13;;;1.90;;
6013;SDS011;3035;49.928;8.410;2022-08-11T11:07:09;6.27;;;2.00;;
6013;SDS011;3035;49.928;8.410;2022-08-11T11:09:39;4.83;;;1.60;;
6013;SDS011;3035;49.928;8.410;2022-08-11T11:12:12;8.07;;;2.43;;
6013;SDS011;3035;49.928;8.410;2022-08-11T11:15:01;3.17;;;2.20;;
6013;SDS011;3035;49.928;8.410;2022-08-11T11:17:37;2.00;;;1.70;;
6013;SDS011;3035;49.928;8.410;2022-08-11T11:20:17;2.27;;;1.90;;
6013;SDS011;3035;49.928;8.410;2022-08-11T11:22:45;6.93;;;1.80;;
6013;SDS011;3035;49.928;8.410;2022-08-11T11:25:21;8.90;;;2.10;;
6013;SDS011;3035;49.928;8.410;2022-08-11T11:34:00;7.57;;;2.03;;
6013;SDS011;3035;49.928;8.410;2022-08-11T11:36:44;7.07;;;1.70;;
6013;SDS011;3035;49.928;8.410;2022-08-11T11:39:17;3.90;;;2.40;;
6013;SDS011;3035;49.928;8.410;2022-08-11T11:41:50;4.47;;;2.10;;
6013;SDS011;3035;49.928;8.410;2022-08-11T11:44:19;4.43;;;1.90;;
6013;SDS011;3035;49.928;8.410;2022-08-11T11:46:48;4.27;;;1.80;;
6013;SDS011;3035;49.928;8.410;2022-08-11T11:49:19;5.10;;;2.07;;
6013;SDS011;3035;49.928;8.410;2022-08-11T11:51:48;2.30;;;1.67;;
6013;SDS011;3035;49.928;8.410;2022-08-11T11:54:19;1.90;;;1.73;;
6013;SDS011;3035;49.928;8.410;2022-08-11T11:56:50;5.07;;;2.03;;
6013;SDS011;3035;49.928;8.410;2022-08-11T11:59:20;2.30;;;1.90;;
6013;SDS011;3035;49.928;8.410;2022-08-11T12:01:55;2.60;;;2.33;;
6013;SDS011;3035;49.928;8.410;2022-08-11T12:04:24;2.33;;;1.70;;
6013;SDS011;3035;49.928;8.410;2022-08-11T12:06:54;2.50;;;1.70;;
6013;SDS011;3035;49.928;8.410;2022-08-11T12:09:23;2.37;;;2.17;;
6013;SDS011;3035;49.928;8.410;2022-08-11T12:11:53;3.67;;;2.10;;
6013;SDS011;3035;49.928;8.410;2022-08-11T12:14:28;5.43;;;2.00;;
6013;SDS011;3035;49.928;8.410;2022-08-11T12:16:57;4.00;;;1.90;;
6013;SDS011;3035;49.928;8.410;2022-08-11T12:19:27;2.57;;;2.07;;
6013;SDS011;3035;49.928;8.410;2022-08-11T12:21:56;2.90;;;1.83;;
6013;SDS011;3035;49.928;8.410;2022-08-11T12:24:33;2.07;;;1.63;;
6013;SDS011;3035;49.928;8.410;2022-08-11T12:27:07;2.20;;;2.00;;
6013;SDS011;3035;49.928;8.410;2022-08-11T12:29:42;5.05;;;1.95;;
6013;SDS011;3035;49.928;8.410;2022-08-11T12:32:11;2.13;;;1.93;;
6013;SDS011;3035;49.928;8.410;2022-08-11T12:34:41;3.00;;;1.80;;
6013;SDS011;3035;49.928;8.410;2022-08-11T12:37:10;2.63;;;1.80;;
6013;SDS011;3035;49.928;8.410;2022-08-11T12:39:43;5.67;;;1.77;;
6013;SDS011;3035;49.928;8.410;2022-08-11T12:42:17;4.50;;;2.40;;
6013;SDS011;3035;49.928;8.410;2022-08-11T12:44:53;3.47;;;2.10;;
6013;SDS011;3035;49.928;8.410;2022-08-11T12:47:27;12.93;;;2.20;;
6013;SDS011;3035;49.928;8.410;2022-08-11T12:49:57;6.20;;;1.87;;
6013;SDS011;3035;49.928;8.410;2022-08-11T12:52:33;10.00;;;2.10;;
6013;SDS011;3035;49.928;8.410;2022-08-11T12:55:08;4.03;;;2.20;;
6013;SDS011;3035;49.928;8.410;2022-08-11T12:57:41;1.70;;;1.60;;
6013;SDS011;3035;49.928;8.410;2022-08-11T13:00:16;5.57;;;2.37;;
6013;SDS011;3035;49.928;8.410;2022-08-11T13:02:51;4.63;;;1.90;;
6013;SDS011;3035;49.928;8.410;2022-08-11T13:05:26;2.70;;;2.10;;
6013;SDS011;3035;49.928;8.410;2022-08-11T13:07:55;2.10;;;1.90;;
6013;SDS011;3035;49.928;8.410;2022-08-11T13:10:25;2.33;;;2.03;;
6013;SDS011;3035;49.928;8.410;2022-08-11T13:13:01;2.50;;;1.70;;
6013;SDS011;3035;49.928;8.410;2022-08-11T13:15:29;5.03;;;1.63;;
6013;SDS011;3035;49.928;8.410;2022-08-11T13:17:59;2.37;;;1.80;;
6013;SDS011;3035;49.928;8.410;2022-08-11T13:20:29;2.28;;;1.80;;
6013;SDS011;3035;49.928;8.410;2022-08-11T13:22:58;3.40;;;1.85;;
6013;SDS011;3035;49.928;8.410;2022-08-11T13:25:29;2.60;;;1.92;;
6013;SDS011;3035;49.928;8.410;2022-08-11T13:27:58;4.25;;;2.10;;
6013;SDS011;3035;49.928;8.410;2022-08-11T13:30:28;2.83;;;1.70;;
6013;SDS011;3035;49.928;8.410;2022-08-11T13:33:03;5.97;;;2.05;;
6013;SDS011;3035;49.928;8.410;2022-08-11T13:35:32;1.92;;;1.80;;
6013;SDS011;3035;49.928;8.410;2022-08-11T13:38:01;4.00;;;1.77;;
6013;SDS011;3035;49.928;8.410;2022-08-11T13:40:31;3.03;;;1.95;;
6013;SDS011;3035;49.928;8.410;2022-08-11T13:43:00;1.50;;;1.40;;
6013;SDS011;3035;49.928;8.410;2022-08-11T13:45:30;4.87;;;2.35;;
6013;SDS011;3035;49.928;8.410;2022-08-11T13:47:59;7.40;;;1.48;;
6013;SDS011;3035;49.928;8.410;2022-08-11T13:50:29;4.93;;;1.67;;
6013;SDS011;3035;49.928;8.410;2022-08-11T13:53:14;1.50;;;1.40;;
6013;SDS011;3035;49.928;8.410;2022-08-11T13:55:43;3.80;;;2.15;;
6013;SDS011;3035;49.928;8.410;2022-08-11T13:58:12;2.75;;;1.75;;
6013;SDS011;3035;49.928;8.410;2022-08-11T14:00:43;2.25;;;1.75;;
6013;SDS011;3035;49.928;8.410;2022-08-11T14:03:11;2.00;;;1.80;;
6013;SDS011;3035;49.928;8.410;2022-08-11T14:05:43;3.97;;;2.45;;
6013;SDS011;3035;49.928;8.410;2022-08-11T14:08:15;3.55;;;1.80;;
6013;SDS011;3035;49.928;8.410;2022-08-11T14:10:44;2.30;;;1.90;;
6013;SDS011;3035;49.928;8.410;2022-08-11T14:13:14;3.70;;;1.70;;
6013;SDS011;3035;49.928;8.410;2022-08-11T14:15:48;2.10;;;1.80;;
6013;SDS011;3035;49.928;8.410;2022-08-11T14:18:19;2.95;;;1.70;;
6013;SDS011;3035;49.928;8.410;2022-08-11T14:20:51;5.15;;;2.05;;
6013;SDS011;3035;49.928;8.410;2022-08-11T14:23:28;3.03;;;1.80;;
6013;SDS011;3035;49.928;8.410;2022-08-11T14:25:57;2.47;;;1.60;;
6013;SDS011;3035;49.928;8.410;2022-08-11T14:28:32;3.55;;;1.83;;
6013;SDS011;3035;49.928;8.410;2022-08-11T14:31:02;2.35;;;1.75;;
6013;SDS011;3035;49.928;8.410;2022-08-11T14:33:31;3.00;;;1.80;;
6013;SDS011;3035;49.928;8.410;2022-08-11T14:36:01;8.25;;;1.73;;
6013;SDS011;3035;49.928;8.410;2022-08-11T14:38:32;5.28;;;1.58;;
6013;SDS011;3035;49.928;8.410;2022-08-11T14:43:54;41.28;;;5.65;;
6013;SDS011;3035;49.928;8.410;2022-08-11T14:46:28;35.22;;;4.68;;
6013;SDS011;3035;49.928;8.410;2022-08-11T14:49:03;16.77;;;3.70;;
6013;SDS011;3035;49.928;8.410;2022-08-11T14:51:32;22.70;;;3.92;;
6013;SDS011;3035;49.928;8.410;2022-08-11T14:54:02;8.98;;;2.30;;
6013;SDS011;3035;49.928;8.410;2022-08-11T14:56:37;14.85;;;3.08;;
6013;SDS011;3035;49.928;8.410;2022-08-11T14:59:06;43.78;;;6.25;;
6013;SDS011;3035;49.928;8.410;2022-08-11T15:01:36;74.15;;;8.88;;
6013;SDS011;3035;49.928;8.410;2022-08-11T15:04:11;16.05;;;3.45;;
6013;SDS011;3035;49.928;8.410;2022-08-11T15:06:40;10.93;;;3.65;;
6013;SDS011;3035;49.928;8.410;2022-08-11T15:09:10;3.80;;;1.90;;
6013;SDS011;3035;49.928;8.410;2022-08-11T15:11:40;6.60;;;1.90;;
6013;SDS011;3035;49.928;8.410;2022-08-11T15:14:15;7.62;;;2.17;;
6013;SDS011;3035;49.928;8.410;2022-08-11T15:16:45;4.55;;;2.10;;
6013;SDS011;3035;49.928;8.410;2022-08-11T15:19:20;16.80;;;2.00;;
6013;SDS011;3035;49.928;8.410;2022-08-11T15:21:50;4.97;;;1.50;;
6013;SDS011;3035;49.928;8.410;2022-08-11T15:24:25;2.80;;;1.43;;
6013;SDS011;3035;49.928;8.410;2022-08-11T15:26:54;8.53;;;1.70;;
6013;SDS011;3035;49.928;8.410;2022-08-11T15:29:29;3.63;;;1.73;;
6013;SDS011;3035;49.928;8.410;2022-08-11T15:32:05;4.20;;;1.80;;
6013;SDS011;3035;49.928;8.410;2022-08-11T15:34:39;3.07;;;2.17;;
6013;SDS011;3035;49.928;8.410;2022-08-11T15:37:15;3.33;;;1.63;;
6013;SDS011;3035;49.928;8.410;2022-08-11T15:39:52;3.10;;;1.57;;
6013;SDS011;3035;49.928;8.410;2022-08-11T15:42:29;6.87;;;2.37;;
6013;SDS011;3035;49.928;8.410;2022-08-11T15:45:04;2.80;;;2.03;;
6013;SDS011;3035;49.928;8.410;2022-08-11T15:47:43;4.03;;;1.93;;
6013;SDS011;3035;49.928;8.410;2022-08-11T15:50:14;7.27;;;2.10;;
6013;SDS011;3035;49.928;8.410;2022-08-11T15:52:45;1.77;;;1.67;;
6013;SDS011;3035;49.928;8.410;2022-08-11T15:55:17;16.37;;;2.77;;
6013;SDS011;3035;49.928;8.410;2022-08-11T15:57:48;13.20;;;2.40;;
6013;SDS011;3035;49.928;8.410;2022-08-11T16:00:22;5.43;;;2.30;;
6013;SDS011;3035;49.928;8.410;2022-08-11T16:02:57;13.30;;;3.20;;
6013;SDS011;3035;49.928;8.410;2022-08-11T16:05:32;10.03;;;1.80;;
6013;SDS011;3035;49.928;8.410;2022-08-11T16:08:02;10.83;;;2.10;;
6013;SDS011;3035;49.928;8.410;2022-08-11T16:10:31;5.37;;;2.03;;
6013;SDS011;3035;49.928;8.410;2022-08-11T16:13:02;21.10;;;2.40;;
6013;SDS011;3035;49.928;8.410;2022-08-11T16:15:48;7.30;;;2.43;;
6013;SDS011;3035;49.928;8.410;2022-08-11T16:18:27;8.87;;;2.00;;
6013;SDS011;3035;49.928;8.410;2022-08-11T16:20:56;9.83;;;1.93;;
6013;SDS011;3035;49.928;8.410;2022-08-11T16:23:25;10.03;;;2.20;;
6013;SDS011;3035;49.928;8.410;2022-08-11T16:25:55;7.33;;;1.93;;
6013;SDS011;3035;49.928;8.410;2022-08-11T16:28:24;6.20;;;1.87;;
6013;SDS011;3035;49.928;8.410;2022-08-11T16:30:54;2.53;;;2.33;;
6013;SDS011;3035;49.928;8.410;2022-08-11T16:33:24;2.30;;;2.10;;
6013;SDS011;3035;49.928;8.410;2022-08-11T16:35:53;19.77;;;2.77;;
6013;SDS011;3035;49.928;8.410;2022-08-11T16:38:28;3.03;;;2.13;;
6013;SDS011;3035;49.928;8.410;2022-08-11T16:41:03;7.57;;;2.37;;
6013;SDS011;3035;49.928;8.410;2022-08-11T16:43:33;10.17;;;1.83;;
6013;SDS011;3035;49.928;8.410;2022-08-11T16:46:07;4.97;;;2.10;;
6013;SDS011;3035;49.928;8.410;2022-08-11T16:48:42;7.13;;;2.80;;
6013;SDS011;3035;49.928;8.410;2022-08-11T16:51:12;10.70;;;2.80;;
6013;SDS011;3035;49.928;8.410;2022-08-11T16:53:41;5.50;;;2.20;;
6013;SDS011;3035;49.928;8.410;2022-08-11T16:56:13;6.07;;;2.20;;
6013;SDS011;3035;49.928;8.410;2022-08-11T16:58:41;5.40;;;2.40;;
6013;SDS011;3035;49.928;8.410;2022-08-11T17:01:31;22.77;;;2.73;;
6013;SDS011;3035;49.928;8.410;2022-08-11T17:04:06;26.90;;;4.03;;
6013;SDS011;3035;49.928;8.410;2022-08-11T17:06:40;11.17;;;2.63;;
6013;SDS011;3035;49.928;8.410;2022-08-11T17:09:15;8.30;;;2.67;;
6013;SDS011;3035;49.928;8.410;2022-08-11T17:11:50;5.27;;;2.30;;
6013;SDS011;3035;49.928;8.410;2022-08-11T17:14:27;16.67;;;3.57;;
6013;SDS011;3035;49.928;8.410;2022-08-11T17:16:54;10.80;;;3.03;;
6013;SDS011;3035;49.928;8.410;2022-08-11T17:19:24;8.83;;;2.73;;
6013;SDS011;3035;49.928;8.410;2022-08-11T17:21:53;11.83;;;2.73;;
6013;SDS011;3035;49.928;8.410;2022-08-11T17:24:28;9.10;;;2.87;;
6013;SDS011;3035;49.928;8.410;2022-08-11T17:26:58;17.70;;;3.63;;
6013;SDS011;3035;49.928;8.410;2022-08-11T17:32:09;4.90;;;2.47;;
6013;SDS011;3035;49.928;8.410;2022-08-11T17:34:43;8.83;;;2.80;;
6013;SDS011;3035;49.928;8.410;2022-08-11T17:37:18;18.10;;;2.63;;